METAR AND TAF INFORMATION
METAR FOR OIAM
ADDS - METARS form results

(0538 UTC 02 June 2020)
Data provider http://aviationweather.gov/metar/data/
 
METAR text: OIAM 020500Z 24008KT 5000 HZ NSC 32/25 Q1003
Conditions at: OIAM (BANDAR MAHSHAHR , IR) observed 0500 UTC 02 June 2020
Temperature: 32.0°C (90°F)
Dewpoint: 25.0°C (77°F) [RH = 67%]
Pressure (altimeter): 29.62 inches Hg (1003.0 mb)
Winds: from the WSW (240 degrees) at 9 MPH (8 knots; 4.1 m/s)
Visibility: 3 miles ( 5 km)
Ceiling: at least 12,000 feet AGL
Clouds: sky clear below 12,000 feet AGL
Weather: HZ  (haze)

 AIRPORT MAP

 RUNWAY INFORMATION
Runway 14 Runway length 8874 ft Runway width 148 ft
Runway elevation 8 ft Runway displaced threshold 0 ft Runway heading 137
Runway 32 Runway length 8874 ft Runway width 148 ft
Runway elevation 8 ft Runway displaced threshold 984 ft Runway heading 317

 AIRPORT FREQUENCIES
Type TWR Name ATIS Frequency 118.65 MHZ

 AIRPORT NEAR NAVIGATION AIDS
Type VOR-DME Name Mahshahr Frequency 115800 KHZ



Copyright @ Zagros Virtual Airline